createdAt,value
2022-10-17T00:01:08.879Z,9.70
2022-10-17T00:03:38.273Z,10.50
2022-10-17T00:06:08.316Z,9.70
2022-10-17T00:08:36.985Z,9.50
2022-10-17T00:11:08.648Z,8.90
2022-10-17T00:13:36.900Z,9.50
2022-10-17T00:16:06.635Z,9.80
2022-10-17T00:18:35.016Z,9.30
2022-10-17T00:21:03.677Z,9.60
2022-10-17T00:23:33.154Z,9.90
2022-10-17T00:26:03.471Z,11.30
2022-10-17T00:28:32.751Z,10.50
2022-10-17T00:31:03.409Z,10.70
2022-10-17T00:33:32.725Z,10.10
2022-10-17T00:36:06.733Z,9.50
2022-10-17T00:38:37.243Z,9.60
2022-10-17T00:41:06.221Z,9.30
2022-10-17T00:43:57.267Z,10.10
2022-10-17T00:46:29.607Z,10.10
2022-10-17T00:49:04.313Z,9.00
2022-10-17T00:51:41.713Z,10.30
2022-10-17T00:54:11.308Z,9.70
2022-10-17T00:56:40.329Z,9.50
2022-10-17T00:59:11.011Z,9.30
2022-10-17T01:01:41.307Z,10.50
2022-10-17T01:04:10.267Z,9.40
2022-10-17T01:06:40.839Z,9.10
2022-10-17T01:09:09.613Z,9.70
2022-10-17T01:11:45.431Z,9.90
2022-10-17T01:14:25.374Z,9.30
2022-10-17T01:17:07.888Z,9.70
2022-10-17T01:19:58.005Z,10.30
2022-10-17T01:22:33.316Z,10.10
2022-10-17T01:25:27.692Z,10.50
2022-10-17T01:28:18.545Z,10.70
2022-10-17T01:31:08.704Z,11.00
2022-10-17T01:33:49.692Z,11.60
2022-10-17T01:36:32.187Z,11.10
2022-10-17T01:39:10.953Z,11.30
2022-10-17T01:41:45.767Z,11.10
2022-10-17T01:44:19.543Z,11.90
2022-10-17T01:46:51.944Z,12.10
2022-10-17T01:49:25.258Z,10.90
2022-10-17T01:52:01.043Z,9.80
2022-10-17T01:54:33.437Z,10.50
2022-10-17T01:57:07.293Z,10.20
2022-10-17T01:59:38.949Z,11.10
2022-10-17T02:02:09.562Z,12.10
2022-10-17T02:04:40.216Z,11.50
2022-10-17T02:07:09.911Z,11.50
2022-10-17T02:09:39.706Z,10.80
2022-10-17T02:12:24.966Z,9.40
2022-10-17T02:15:10.187Z,10.20
2022-10-17T02:17:48.279Z,10.20
2022-10-17T02:20:23.950Z,10.50
2022-10-17T02:22:57.188Z,10.40
2022-10-17T02:25:36.057Z,11.10
2022-10-17T02:28:15.156Z,11.70
2022-10-17T02:30:49.925Z,11.50
2022-10-17T02:33:23.274Z,10.80
2022-10-17T02:35:59.056Z,10.60
2022-10-17T02:38:30.378Z,10.30
2022-10-17T02:41:01.687Z,9.20
2022-10-17T02:43:31.077Z,9.60
2022-10-17T02:46:00.852Z,10.60
2022-10-17T02:48:36.868Z,10.40
2022-10-17T02:51:11.011Z,9.20
2022-10-17T02:53:50.449Z,10.30
2022-10-17T02:56:20.980Z,9.90
2022-10-17T02:58:53.048Z,10.80
2022-10-17T03:01:21.876Z,10.10
2022-10-17T03:03:50.519Z,10.30
2022-10-17T03:06:18.762Z,9.30
2022-10-17T03:08:47.406Z,9.00
2022-10-17T03:11:15.765Z,9.90
2022-10-17T03:13:44.295Z,10.20
2022-10-17T03:16:12.472Z,10.10
2022-10-17T03:18:41.175Z,10.00
2022-10-17T03:21:10.300Z,9.80
2022-10-17T03:23:39.089Z,10.50
2022-10-17T03:26:09.204Z,10.40
2022-10-17T03:28:37.962Z,11.00
2022-10-17T03:31:12.887Z,10.20
2022-10-17T03:33:42.526Z,10.80
2022-10-17T03:36:14.185Z,10.50
2022-10-17T03:38:44.520Z,11.20
2022-10-17T03:41:14.048Z,12.10
2022-10-17T03:43:43.859Z,11.10
2022-10-17T03:46:19.494Z,10.40
2022-10-17T03:49:02.343Z,12.00
2022-10-17T03:51:32.457Z,11.90
2022-10-17T03:54:04.167Z,11.40
2022-10-17T03:56:32.462Z,10.90
2022-10-17T03:59:04.598Z,9.10
2022-10-17T04:01:37.971Z,10.90
2022-10-17T04:04:09.423Z,10.90
2022-10-17T04:06:38.398Z,10.70
2022-10-17T04:09:07.515Z,11.00
2022-10-17T04:11:59.643Z,11.20
2022-10-17T04:14:28.735Z,11.60
2022-10-17T04:16:58.426Z,11.50
2022-10-17T04:19:27.453Z,11.30
2022-10-17T04:21:55.725Z,9.40
2022-10-17T04:24:25.291Z,10.60
2022-10-17T04:27:06.015Z,11.80
2022-10-17T04:29:37.279Z,10.60
2022-10-17T04:32:18.818Z,11.70
2022-10-17T04:34:51.520Z,12.70
2022-10-17T04:37:21.387Z,12.60
2022-10-17T04:39:50.841Z,12.10
2022-10-17T04:42:20.414Z,13.60
2022-10-17T04:44:49.804Z,13.80
2022-10-17T04:47:19.098Z,12.20
2022-10-17T04:49:47.813Z,12.10
2022-10-17T04:52:17.490Z,13.70
2022-10-17T04:54:47.662Z,14.40
2022-10-17T04:57:16.209Z,15.10
2022-10-17T04:59:51.575Z,15.40
2022-10-17T05:02:23.955Z,15.20
2022-10-17T05:04:52.663Z,15.50
2022-10-17T05:07:21.823Z,16.30
2022-10-17T05:10:02.308Z,15.10
2022-10-17T05:12:31.155Z,14.50
2022-10-17T05:15:01.285Z,14.10
2022-10-17T05:17:31.007Z,13.00
2022-10-17T05:20:00.122Z,12.20
2022-10-17T05:22:30.295Z,13.00
2022-10-17T05:25:00.184Z,13.80
2022-10-17T05:27:28.597Z,14.00
2022-10-17T05:30:00.380Z,13.70
2022-10-17T05:32:34.293Z,12.70
2022-10-17T05:35:04.118Z,12.70
2022-10-17T05:37:33.493Z,13.10
2022-10-17T05:40:04.881Z,12.00
2022-10-17T05:42:33.892Z,11.60
2022-10-17T05:45:03.952Z,13.00
2022-10-17T05:47:32.576Z,12.50
2022-10-17T05:50:01.475Z,12.30
2022-10-17T05:52:35.675Z,12.70
2022-10-17T05:55:10.877Z,14.00
2022-10-17T05:57:40.131Z,13.30
2022-10-17T06:00:15.451Z,12.20
2022-10-17T06:02:45.955Z,12.00
2022-10-17T06:05:17.029Z,12.10
2022-10-17T06:07:48.387Z,11.80
2022-10-17T06:10:20.005Z,11.60
2022-10-17T06:12:48.475Z,12.40
2022-10-17T06:15:18.340Z,12.40
2022-10-17T06:17:52.210Z,11.50
2022-10-17T06:20:21.604Z,12.80
2022-10-17T06:22:50.129Z,11.20
2022-10-17T06:25:28.853Z,12.30
2022-10-17T06:28:00.478Z,13.10
2022-10-17T06:30:30.292Z,13.60
2022-10-17T06:33:02.383Z,14.50
2022-10-17T06:35:31.312Z,14.80
2022-10-17T06:38:01.227Z,16.60
2022-10-17T06:40:31.102Z,15.50
2022-10-17T06:43:02.146Z,17.20
2022-10-17T06:46:01.245Z,16.90
2022-10-17T06:48:38.016Z,18.30
2022-10-17T06:51:24.225Z,17.60
2022-10-17T06:53:58.853Z,15.60
2022-10-17T06:57:01.751Z,18.70
2022-10-17T06:59:29.979Z,19.00
2022-10-17T07:02:19.801Z,16.40
2022-10-17T07:04:48.083Z,17.60
2022-10-17T07:07:16.312Z,16.60
2022-10-17T07:09:44.911Z,16.60
2022-10-17T07:12:13.278Z,15.90
2022-10-17T07:14:47.191Z,16.50
2022-10-17T07:17:15.566Z,16.70
2022-10-17T07:19:44.549Z,18.60
2022-10-17T07:22:13.480Z,17.60
2022-10-17T07:24:44.923Z,19.20
2022-10-17T07:27:19.319Z,19.80
2022-10-17T07:29:48.246Z,17.60
2022-10-17T07:32:22.136Z,17.90
2022-10-17T07:34:50.429Z,19.00
2022-10-17T07:37:19.495Z,19.80
2022-10-17T07:39:55.911Z,20.10
2022-10-17T07:42:24.342Z,20.00
2022-10-17T07:44:52.764Z,20.20
2022-10-17T07:47:24.396Z,18.20
2022-10-17T07:49:54.042Z,19.50
2022-10-17T07:52:22.675Z,18.90
2022-10-17T07:54:50.957Z,18.30
2022-10-17T07:57:19.137Z,19.50
2022-10-17T07:59:47.695Z,19.90
2022-10-17T08:02:21.859Z,17.00
2022-10-17T08:04:50.450Z,17.10
2022-10-17T08:07:24.133Z,17.70
2022-10-17T08:09:55.412Z,17.70
2022-10-17T08:12:26.058Z,17.50
2022-10-17T08:14:54.200Z,18.40
2022-10-17T08:17:22.864Z,17.50
2022-10-17T08:19:51.152Z,18.40
2022-10-17T08:22:19.457Z,17.30
2022-10-17T08:24:47.909Z,18.10
2022-10-17T08:27:21.150Z,17.10
2022-10-17T08:29:52.369Z,17.20
2022-10-17T08:32:21.785Z,15.20
2022-10-17T08:34:50.248Z,18.20
2022-10-17T08:37:18.787Z,18.40
2022-10-17T08:39:46.960Z,16.20
2022-10-17T08:42:35.921Z,17.90
2022-10-17T08:45:14.093Z,16.40
2022-10-17T08:47:45.213Z,16.60
2022-10-17T08:50:18.167Z,15.20
2022-10-17T08:52:52.236Z,18.20
2022-10-17T08:55:40.012Z,16.60
2022-10-17T08:58:15.252Z,15.40
2022-10-17T09:00:49.768Z,16.70
2022-10-17T09:03:31.707Z,15.90
2022-10-17T09:06:12.746Z,14.80
2022-10-17T09:08:49.862Z,14.60
2022-10-17T09:11:34.122Z,14.30
2022-10-17T09:14:18.178Z,15.20
2022-10-17T09:17:04.231Z,14.50
2022-10-17T09:19:36.120Z,14.50
2022-10-17T09:22:09.273Z,13.50
2022-10-17T09:24:46.063Z,13.40
2022-10-17T09:27:24.002Z,14.00
2022-10-17T09:30:21.487Z,14.00
2022-10-17T09:35:29.998Z,13.60
2022-10-17T09:38:00.088Z,13.20
2022-10-17T09:40:34.726Z,13.20
2022-10-17T09:43:06.735Z,12.50
2022-10-17T09:45:43.600Z,12.80
2022-10-17T09:48:19.615Z,13.50
2022-10-17T09:50:57.835Z,12.50
2022-10-17T09:53:38.793Z,12.90
2022-10-17T09:56:13.314Z,13.20
2022-10-17T09:58:43.310Z,12.90
2022-10-17T10:01:23.991Z,12.50
2022-10-17T10:04:10.904Z,12.20
2022-10-17T10:06:41.063Z,12.00
2022-10-17T10:09:23.147Z,12.50
2022-10-17T10:11:55.026Z,12.70
2022-10-17T10:14:28.282Z,12.70
2022-10-17T10:16:56.658Z,12.20
2022-10-17T10:19:31.221Z,13.00
2022-10-17T10:22:02.867Z,12.10
2022-10-17T10:24:32.501Z,12.70
2022-10-17T10:27:04.727Z,12.10
2022-10-17T10:29:35.601Z,13.00
2022-10-17T10:32:13.398Z,12.50
2022-10-17T10:34:49.414Z,13.40
2022-10-17T10:37:21.434Z,12.80
2022-10-17T10:39:52.031Z,13.00
2022-10-17T10:42:27.260Z,12.30
2022-10-17T10:44:59.729Z,12.60
2022-10-17T10:47:30.418Z,12.30
2022-10-17T10:50:18.462Z,12.60
2022-10-17T10:52:51.931Z,12.10
2022-10-17T10:55:27.706Z,12.30
2022-10-17T10:58:01.662Z,12.30
2022-10-17T11:00:34.321Z,12.50
2022-10-17T11:03:13.574Z,13.40
2022-10-17T11:05:48.247Z,13.50
2022-10-17T11:08:23.338Z,13.50
2022-10-17T11:11:13.484Z,13.10
2022-10-17T11:13:49.561Z,13.60
2022-10-17T11:16:29.097Z,13.40
2022-10-17T11:21:38.912Z,13.70
2022-10-17T11:24:16.404Z,13.70
2022-10-17T11:26:50.401Z,14.10
2022-10-17T11:29:18.826Z,14.10
2022-10-17T11:31:52.341Z,13.90
2022-10-17T11:34:25.217Z,13.40
2022-10-17T11:37:00.538Z,13.80
2022-10-17T11:39:33.911Z,13.70
2022-10-17T11:42:06.787Z,13.70
2022-10-17T11:44:39.466Z,13.70
2022-10-17T11:47:18.191Z,13.90
2022-10-17T11:49:51.362Z,13.70
2022-10-17T11:52:51.833Z,13.70
2022-10-17T11:55:24.997Z,13.70
2022-10-17T11:58:02.818Z,13.50
2022-10-17T12:00:48.817Z,13.20
2022-10-17T12:03:39.097Z,13.30
2022-10-17T12:06:15.881Z,13.50
2022-10-17T12:08:53.055Z,13.60
2022-10-17T12:11:34.352Z,14.30
2022-10-17T12:14:05.808Z,13.50
2022-10-17T12:16:43.496Z,13.20
2022-10-17T12:19:34.066Z,15.10
2022-10-17T12:22:18.765Z,13.70
2022-10-17T12:24:56.893Z,14.10
2022-10-17T12:27:38.136Z,13.80
2022-10-17T12:30:19.875Z,13.50
2022-10-17T12:33:21.589Z,14.40
2022-10-17T12:35:51.705Z,14.40
2022-10-17T12:38:23.776Z,13.70
2022-10-17T12:41:03.098Z,14.40
2022-10-17T12:43:47.041Z,13.90
2022-10-17T12:46:47.239Z,13.30
2022-10-17T12:49:38.598Z,13.20
2022-10-17T12:52:48.183Z,14.60
2022-10-17T12:55:19.015Z,13.10
2022-10-17T12:58:10.716Z,13.50
2022-10-17T13:01:19.125Z,13.20
2022-10-17T13:03:45.898Z,11.90
2022-10-17T13:06:20.147Z,13.40
2022-10-17T13:09:03.853Z,13.50
2022-10-17T13:11:36.029Z,13.40
2022-10-17T13:14:12.260Z,13.70
2022-10-17T13:16:53.717Z,14.10
2022-10-17T13:19:23.817Z,12.90
2022-10-17T13:21:55.518Z,12.70
2022-10-17T13:24:30.906Z,13.40
2022-10-17T13:27:01.033Z,13.40
2022-10-17T13:29:33.542Z,13.70
2022-10-17T13:32:05.135Z,13.40
2022-10-17T13:34:34.485Z,13.40
2022-10-17T13:37:06.893Z,13.00
2022-10-17T13:40:00.231Z,14.00
2022-10-17T13:42:31.769Z,13.30
2022-10-17T13:45:01.549Z,14.30
2022-10-17T13:47:33.688Z,12.90
2022-10-17T13:50:02.442Z,14.00
2022-10-17T13:52:31.436Z,13.50
2022-10-17T13:55:09.542Z,11.90
2022-10-17T14:00:15.610Z,12.40
2022-10-17T14:02:44.863Z,13.10
2022-10-17T14:05:19.481Z,14.50
2022-10-17T14:10:43.362Z,12.40
2022-10-17T14:13:21.761Z,12.60
2022-10-17T14:15:51.539Z,13.40
2022-10-17T14:18:23.879Z,12.80
2022-10-17T14:23:43.802Z,12.20
2022-10-17T14:26:15.668Z,12.90
2022-10-17T14:28:46.327Z,12.80
2022-10-17T14:31:25.637Z,13.80
2022-10-17T14:33:55.415Z,13.10
2022-10-17T14:36:34.464Z,11.70
2022-10-17T14:39:05.380Z,13.10
2022-10-17T14:41:42.974Z,12.30
2022-10-17T14:44:21.566Z,13.40
2022-10-17T14:46:54.929Z,12.40
2022-10-17T14:49:33.436Z,14.00
2022-10-17T14:52:20.419Z,11.60
2022-10-17T14:54:51.270Z,12.10
2022-10-17T14:57:24.581Z,12.90
2022-10-17T14:59:56.013Z,12.00
2022-10-17T15:02:26.221Z,13.00
2022-10-17T15:04:55.173Z,11.20
2022-10-17T15:07:24.268Z,13.60
2022-10-17T15:09:53.214Z,12.60
2022-10-17T15:12:24.257Z,13.10
2022-10-17T15:14:53.505Z,12.50
2022-10-17T15:17:25.317Z,12.80
2022-10-17T15:19:54.256Z,13.90
2022-10-17T15:22:23.423Z,12.70
2022-10-17T15:24:51.798Z,13.30
2022-10-17T15:27:22.270Z,13.40
2022-10-17T15:29:52.598Z,11.40
2022-10-17T15:32:20.942Z,13.30
2022-10-17T15:34:49.424Z,14.10
2022-10-17T15:37:21.463Z,13.30
2022-10-17T15:39:53.844Z,13.60
2022-10-17T15:42:28.009Z,14.00
2022-10-17T15:44:57.487Z,13.90
2022-10-17T15:47:30.382Z,10.80
2022-10-17T15:50:01.375Z,12.10
2022-10-17T15:52:32.393Z,12.40
2022-10-17T15:55:04.312Z,12.30
2022-10-17T15:57:38.363Z,12.60
2022-10-17T16:00:16.737Z,14.10
2022-10-17T16:02:46.683Z,12.90
2022-10-17T16:05:17.326Z,12.70
2022-10-17T16:07:47.175Z,14.00
2022-10-17T16:10:16.317Z,12.10
2022-10-17T16:12:45.072Z,10.80
2022-10-17T16:15:15.323Z,11.00
2022-10-17T16:17:44.394Z,11.40
2022-10-17T16:20:13.709Z,12.50
2022-10-17T16:22:44.415Z,12.40
2022-10-17T16:25:20.591Z,11.60
2022-10-17T16:27:51.130Z,13.80
2022-10-17T16:32:51.263Z,13.10
2022-10-17T16:35:22.803Z,13.30
2022-10-17T16:37:51.021Z,13.50
2022-10-17T16:40:20.638Z,12.90
2022-10-17T16:42:49.704Z,13.00
2022-10-17T16:45:21.727Z,15.60
2022-10-17T16:47:52.491Z,16.20
2022-10-17T16:50:20.761Z,14.50
2022-10-17T16:52:49.190Z,13.40
2022-10-17T16:55:18.706Z,17.00
2022-10-17T16:57:48.395Z,13.40
2022-10-17T17:00:18.487Z,14.70
2022-10-17T17:02:48.427Z,14.60
2022-10-17T17:05:16.832Z,15.10
2022-10-17T17:07:47.361Z,15.30
2022-10-17T17:10:15.887Z,15.30
2022-10-17T17:12:44.570Z,14.30
2022-10-17T17:15:13.720Z,14.30
2022-10-17T17:17:50.555Z,14.10
2022-10-17T17:20:21.366Z,13.70
2022-10-17T17:22:51.422Z,15.10
2022-10-17T17:25:20.301Z,13.30
2022-10-17T17:27:51.949Z,13.60
2022-10-17T17:30:20.417Z,14.00
2022-10-17T17:32:49.235Z,15.20
2022-10-17T17:35:18.848Z,13.40
2022-10-17T17:37:48.065Z,14.10
2022-10-17T17:40:18.043Z,12.80
2022-10-17T17:42:47.288Z,13.60
2022-10-17T17:45:16.661Z,12.80
2022-10-17T17:47:47.114Z,15.10
2022-10-17T17:50:16.361Z,15.30
2022-10-17T17:52:50.106Z,13.90
2022-10-17T17:55:19.260Z,14.30
2022-10-17T17:57:48.077Z,13.70
2022-10-17T18:00:17.701Z,13.80
2022-10-17T18:02:47.038Z,14.10
2022-10-17T18:05:15.675Z,13.80
2022-10-17T18:07:44.407Z,14.20
2022-10-17T18:13:02.499Z,14.90
2022-10-17T18:15:31.698Z,14.90
2022-10-17T18:18:04.688Z,16.00
2022-10-17T18:20:35.019Z,16.10
2022-10-17T18:23:04.413Z,16.50
2022-10-17T18:25:33.205Z,16.00
2022-10-17T18:28:02.695Z,17.10
2022-10-17T18:30:36.025Z,18.80
2022-10-17T18:33:09.960Z,16.90
2022-10-17T18:35:38.618Z,16.60
2022-10-17T18:38:07.650Z,16.10
2022-10-17T18:40:37.202Z,14.80
2022-10-17T18:43:06.717Z,14.80
2022-10-17T18:45:37.933Z,14.90
2022-10-17T18:48:09.438Z,15.60
2022-10-17T18:50:41.273Z,14.90
2022-10-17T18:53:10.059Z,15.20
2022-10-17T18:55:40.991Z,17.30
2022-10-17T18:58:09.431Z,16.80
2022-10-17T19:00:37.714Z,18.50
2022-10-17T19:03:08.855Z,16.70
2022-10-17T19:05:40.301Z,16.80
2022-10-17T19:08:08.603Z,18.30
2022-10-17T19:10:39.090Z,15.40
2022-10-17T19:13:07.800Z,13.70
2022-10-17T19:15:37.307Z,14.70
2022-10-17T19:18:07.192Z,16.00
2022-10-17T19:20:35.395Z,15.10
2022-10-17T19:23:04.291Z,15.50
2022-10-17T19:25:33.691Z,14.90
2022-10-17T19:28:02.024Z,13.50
2022-10-17T19:30:30.624Z,12.70
2022-10-17T19:33:01.085Z,14.40
2022-10-17T19:35:30.195Z,11.70
2022-10-17T19:38:00.084Z,12.70
2022-10-17T19:40:28.581Z,12.50
2022-10-17T19:42:57.590Z,14.00
2022-10-17T19:45:26.751Z,14.40
2022-10-17T19:47:55.236Z,13.60
2022-10-17T19:50:23.612Z,13.60
2022-10-17T19:52:51.949Z,12.40
2022-10-17T19:55:20.785Z,13.10
2022-10-17T19:57:50.076Z,13.30
2022-10-17T20:00:18.796Z,12.80
2022-10-17T20:02:47.113Z,14.20
2022-10-17T20:05:18.888Z,14.00
2022-10-17T20:07:48.048Z,13.50
2022-10-17T20:10:18.827Z,14.80
2022-10-17T20:12:47.285Z,15.60
2022-10-17T20:15:15.661Z,14.10
2022-10-17T20:17:47.320Z,14.20
2022-10-17T20:20:16.364Z,13.70
2022-10-17T20:22:45.439Z,13.30
2022-10-17T20:25:13.849Z,13.60
2022-10-17T20:27:42.253Z,12.80
2022-10-17T20:30:11.361Z,13.20
2022-10-17T20:32:39.859Z,13.60
2022-10-17T20:35:09.246Z,13.90
2022-10-17T20:37:41.690Z,13.60
2022-10-17T20:43:02.229Z,13.10
2022-10-17T20:45:50.303Z,11.60
2022-10-17T20:48:19.378Z,13.10
2022-10-17T20:50:48.846Z,12.40
2022-10-17T20:53:36.125Z,13.30
2022-10-17T20:56:07.905Z,12.00
2022-10-17T20:58:36.175Z,12.50
2022-10-17T21:01:09.289Z,12.80
2022-10-17T21:03:42.307Z,12.80
2022-10-17T21:06:15.099Z,11.90
2022-10-17T21:08:44.384Z,12.00
2022-10-17T21:11:14.219Z,13.60
2022-10-17T21:13:43.619Z,14.20
2022-10-17T21:16:13.957Z,12.50
2022-10-17T21:18:42.938Z,12.00
2022-10-17T21:21:13.817Z,13.40
2022-10-17T21:23:44.517Z,11.60
2022-10-17T21:26:13.771Z,12.20
2022-10-17T21:28:43.548Z,12.00
2022-10-17T21:31:14.493Z,13.30
2022-10-17T21:33:44.283Z,13.40
2022-10-17T21:36:15.667Z,12.30
2022-10-17T21:38:45.245Z,12.50
2022-10-17T21:41:16.212Z,12.20
2022-10-17T21:43:45.277Z,13.00
2022-10-17T21:46:17.651Z,11.80
2022-10-17T21:48:51.197Z,13.30
2022-10-17T21:51:21.359Z,13.40
2022-10-17T21:53:50.614Z,13.00
2022-10-17T21:56:20.690Z,11.70
2022-10-17T21:58:49.979Z,12.00
2022-10-17T22:01:20.949Z,12.40
2022-10-17T22:03:51.666Z,13.40
2022-10-17T22:06:39.166Z,12.80
2022-10-17T22:09:11.818Z,11.90
2022-10-17T22:11:40.821Z,12.90
2022-10-17T22:14:13.872Z,13.10
2022-10-17T22:16:44.431Z,14.30
2022-10-17T22:19:14.569Z,12.60
2022-10-17T22:21:43.151Z,12.40
2022-10-17T22:24:13.774Z,13.50
2022-10-17T22:26:42.594Z,13.30
2022-10-17T22:29:11.900Z,12.30
2022-10-17T22:31:41.369Z,11.80
2022-10-17T22:34:12.515Z,12.20
2022-10-17T22:36:41.848Z,12.30
2022-10-17T22:39:10.747Z,12.60
2022-10-17T22:41:39.391Z,11.90
2022-10-17T22:44:07.916Z,11.00
2022-10-17T22:46:36.421Z,11.80
2022-10-17T22:49:05.762Z,12.80
2022-10-17T22:51:34.182Z,12.90
2022-10-17T22:54:02.458Z,12.50
2022-10-17T22:56:30.633Z,12.10
2022-10-17T22:59:01.606Z,13.20
2022-10-17T23:01:30.005Z,12.60
2022-10-17T23:03:59.293Z,9.50
2022-10-17T23:06:27.852Z,11.00
2022-10-17T23:08:56.014Z,10.50
2022-10-17T23:11:24.465Z,10.60
2022-10-17T23:13:53.222Z,10.10
2022-10-17T23:16:21.410Z,9.60
2022-10-17T23:18:49.627Z,10.10
2022-10-17T23:21:18.161Z,10.00
2022-10-17T23:23:46.591Z,10.30
2022-10-17T23:26:15.427Z,9.50
2022-10-17T23:28:44.088Z,9.90
2022-10-17T23:31:14.718Z,8.20
2022-10-17T23:33:45.634Z,8.40
2022-10-17T23:36:15.349Z,7.80
2022-10-17T23:38:45.621Z,8.00
2022-10-17T23:41:15.071Z,8.80
2022-10-17T23:43:43.902Z,8.30
2022-10-17T23:46:12.644Z,7.40
2022-10-17T23:48:44.056Z,7.80
2022-10-17T23:51:12.868Z,7.40
2022-10-17T23:53:42.912Z,7.40
2022-10-17T23:56:11.400Z,7.40
2022-10-17T23:58:40.968Z,7.90
